Time;durP1;ratioP1;P1;durP2;ratioP2;P2;SDS_P1;SDS_P2;PMS_P1;PMS_P2;Temp;Humidity;BMP_temperature;BMP_pressure;BME280_temperature;BME280_humidity;BME280_pressure;Samples;Min_cycle;Max_cycle;Signal;HPM_P1;HPM_P2
2023/02/16 00:01:25;;;;;;;28.50;17.73;;;2.20;99.90;;;;;;5032848;28;20232;-58
2023/02/16 00:03:54;;;;;;;27.77;17.67;;;2.20;99.90;;;;;;5054402;28;20607;-50
2023/02/16 00:06:22;;;;;;;34.97;17.57;;;2.10;99.90;;;;;;5042395;28;20207;-48
2023/02/16 00:08:51;;;;;;;22.50;15.53;;;2.10;99.90;;;;;;5043164;28;20216;-49
2023/02/16 00:14:10;;;;;;;27.57;17.60;;;2.20;99.90;;;;;;5054555;28;20222;-58
2023/02/16 00:16:37;;;;;;;28.87;17.40;;;2.20;99.90;;;;;;5045749;28;20215;-52
2023/02/16 00:19:18;;;;;;;28.57;17.07;;;2.30;99.90;;;;;;5050150;28;20277;-59
2023/02/16 00:21:47;;;;;;;29.37;17.87;;;2.30;99.90;;;;;;5043204;28;20199;-49
2023/02/16 00:24:14;;;;;;;30.57;18.27;;;2.30;99.90;;;;;;5039805;28;20642;-57
2023/02/16 00:26:42;;;;;;;33.20;18.40;;;2.30;99.90;;;;;;5052188;28;20195;-50
2023/02/16 00:29:13;;;;;;;29.97;18.50;;;2.40;99.90;;;;;;5048102;28;20223;-58
2023/02/16 00:31:40;;;;;;;31.00;17.67;;;2.40;99.90;;;;;;5045743;28;20223;-51
2023/02/16 00:34:25;;;;;;;30.63;19.10;;;2.40;99.90;;;;;;5039439;28;20207;-56
2023/02/16 00:36:55;;;;;;;26.93;17.70;;;2.40;99.90;;;;;;5049093;28;20235;-50
2023/02/16 00:39:24;;;;;;;31.03;18.93;;;2.50;99.90;;;;;;5053390;28;20206;-51
2023/02/16 00:41:54;;;;;;;31.30;18.93;;;2.50;99.90;;;;;;5049953;28;20196;-51
2023/02/16 00:44:33;;;;;;;31.23;18.70;;;2.50;99.90;;;;;;5047061;28;20195;-53
2023/02/16 00:47:02;;;;;;;31.03;19.40;;;2.50;99.90;;;;;;5049817;28;20199;-56
2023/02/16 00:49:30;;;;;;;33.40;19.00;;;2.50;99.90;;;;;;5045268;28;20214;-52
2023/02/16 00:51:58;;;;;;;34.77;20.27;;;2.50;99.90;;;;;;5048258;28;20686;-52
2023/02/16 00:54:25;;;;;;;29.80;19.30;;;2.50;99.90;;;;;;5041963;28;20192;-51
2023/02/16 00:56:52;;;;;;;26.60;17.90;;;2.50;99.90;;;;;;5044684;28;20211;-48
2023/02/16 00:59:22;;;;;;;31.43;18.37;;;2.60;99.90;;;;;;5042029;28;20211;-56
2023/02/16 01:01:49;;;;;;;33.43;19.70;;;2.60;99.90;;;;;;5052430;28;20277;-51
2023/02/16 01:04:20;;;;;;;30.63;19.73;;;2.60;99.90;;;;;;5035522;28;20571;-59
2023/02/16 01:12:41;;;;;;;31.60;19.57;;;2.60;99.90;;;;;;5044570;28;20207;-49
2023/02/16 01:15:13;;;;;;;37.40;19.83;;;2.60;99.90;;;;;;5042647;28;20289;-57
2023/02/16 01:17:40;;;;;;;30.23;18.97;;;2.60;99.90;;;;;;5042236;28;20241;-57
2023/02/16 01:20:14;;;;;;;32.03;18.97;;;2.60;99.90;;;;;;5045736;28;20195;-48
2023/02/16 01:22:45;;;;;;;28.07;17.97;;;2.60;99.90;;;;;;5048697;28;20221;-56
2023/02/16 01:25:12;;;;;;;32.40;19.13;;;2.50;99.90;;;;;;5063262;28;20191;-49
2023/02/16 01:27:40;;;;;;;31.27;19.73;;;2.50;99.90;;;;;;5063538;28;20771;-57
2023/02/16 01:30:11;;;;;;;32.27;19.47;;;2.50;99.90;;;;;;5053880;28;20195;-48
2023/02/16 01:32:37;;;;;;;36.93;20.07;;;2.50;99.90;;;;;;5043922;28;20896;-57
2023/02/16 01:35:07;;;;;;;36.23;21.07;;;2.50;99.90;;;;;;5047297;28;23790;-50
2023/02/16 01:37:34;;;;;;;35.27;19.83;;;2.50;99.90;;;;;;5041625;28;20238;-52
2023/02/16 01:40:02;;;;;;;34.13;20.83;;;2.50;99.90;;;;;;5048257;28;20771;-50
2023/02/16 01:42:34;;;;;;;36.37;21.00;;;2.50;99.90;;;;;;5058118;28;20201;-51
2023/02/16 01:45:09;;;;;;;39.40;21.60;;;2.50;99.90;;;;;;5041688;28;20257;-48
2023/02/16 01:47:42;;;;;;;34.73;21.67;;;2.60;99.90;;;;;;5044993;28;20207;-53
2023/02/16 01:50:42;;;;;;;37.83;21.43;;;2.70;99.90;;;;;;5037931;28;20731;-52
2023/02/16 01:53:16;;;;;;;36.23;21.33;;;2.80;99.90;;;;;;5053547;28;20199;-54
2023/02/16 01:55:49;;;;;;;42.30;23.03;;;2.80;99.90;;;;;;5047333;28;20284;-58
2023/02/16 01:58:26;;;;;;;42.63;24.33;;;2.80;99.90;;;;;;5043761;28;20234;-52
2023/02/16 02:01:22;;;;;;;44.30;22.77;;;2.90;99.90;;;;;;5044909;28;20594;-58
2023/02/16 02:06:35;;;;;;;42.67;23.67;;;3.00;99.90;;;;;;5034405;28;21093;-50
2023/02/16 02:09:08;;;;;;;45.40;25.43;;;3.00;99.90;;;;;;5043803;28;20219;-51
2023/02/16 02:11:41;;;;;;;42.10;23.10;;;3.00;99.90;;;;;;5047258;28;20219;-59
2023/02/16 02:14:14;;;;;;;45.00;24.40;;;3.10;99.90;;;;;;5041377;28;20206;-48
2023/02/16 02:16:41;;;;;;;45.70;25.30;;;3.10;99.90;;;;;;5042163;28;20616;-57
2023/02/16 02:19:08;;;;;;;41.27;24.83;;;3.10;99.90;;;;;;5041853;28;20215;-51
2023/02/16 02:25:16;;;;;;;46.70;25.03;;;3.30;99.90;;;;;;5049216;28;20217;-56
2023/02/16 02:27:48;;;;;;;45.43;24.30;;;3.30;99.90;;;;;;5042410;28;20326;-55
2023/02/16 02:30:32;;;;;;;50.17;24.40;;;3.20;99.90;;;;;;5045019;28;20290;-51
2023/02/16 02:33:16;;;;;;;44.27;25.07;;;3.30;99.90;;;;;;5044626;28;21041;-48
2023/02/16 02:35:49;;;;;;;45.00;25.27;;;3.30;99.90;;;;;;5040923;28;20221;-52
2023/02/16 02:38:24;;;;;;;41.90;24.00;;;3.30;99.90;;;;;;5033918;28;20309;-47
2023/02/16 02:40:59;;;;;;;44.73;25.43;;;3.30;99.90;;;;;;5046243;28;20206;-56
2023/02/16 02:43:35;;;;;;;46.50;26.13;;;3.30;99.90;;;;;;5042464;28;20207;-48
2023/02/16 02:46:09;;;;;;;41.67;25.17;;;3.30;99.90;;;;;;5039699;28;20195;-50
2023/02/16 02:48:35;;;;;;;50.83;27.40;;;3.30;99.90;;;;;;5041788;28;20590;-56
2023/02/16 02:51:29;;;;;;;46.37;26.57;;;3.30;99.90;;;;;;5039485;28;20300;-51
2023/02/16 03:02:36;;;;;;;45.87;26.33;;;3.50;99.90;;;;;;5043801;28;20203;-53
2023/02/16 03:05:05;;;;;;;48.27;26.47;;;3.50;99.90;;;;;;5040361;28;20194;-48
2023/02/16 03:13:15;;;;;;;47.33;27.97;;;3.50;99.90;;;;;;5054302;28;20194;-52
2023/02/16 03:15:46;;;;;;;45.47;26.43;;;3.50;99.90;;;;;;5042234;28;20206;-56
2023/02/16 03:29:21;;;;;;;47.70;25.70;;;3.70;99.90;;;;;;5043555;28;20687;-50
2023/02/16 03:31:51;;;;;;;44.70;26.33;;;3.80;99.90;;;;;;5049546;28;20714;-53
2023/02/16 03:34:22;;;;;;;47.20;26.53;;;3.80;99.90;;;;;;5042880;28;20257;-52
2023/02/16 03:37:11;;;;;;;53.97;28.43;;;3.80;99.90;;;;;;5056066;28;20201;-49
2023/02/16 03:42:21;;;;;;;46.37;26.97;;;3.80;99.90;;;;;;5046510;28;20204;-49
2023/02/16 03:44:48;;;;;;;47.83;27.43;;;3.80;99.90;;;;;;5040263;28;20210;-56
2023/02/16 03:47:17;;;;;;;46.83;26.33;;;3.80;99.90;;;;;;5039670;28;20203;-48
2023/02/16 03:49:43;;;;;;;47.13;27.57;;;3.80;99.90;;;;;;5056165;28;20407;-55
2023/02/16 03:52:10;;;;;;;44.97;25.77;;;3.80;99.90;;;;;;5060769;28;20227;-51
2023/02/16 03:54:37;;;;;;;44.90;26.70;;;3.80;99.90;;;;;;5044367;28;20203;-57
2023/02/16 03:57:04;;;;;;;38.23;26.07;;;3.80;99.90;;;;;;5043192;28;20199;-52
2023/02/16 03:59:31;;;;;;;48.53;26.40;;;3.80;99.90;;;;;;5052891;28;20547;-48
2023/02/16 04:01:58;;;;;;;43.10;25.10;;;3.80;99.90;;;;;;5044976;28;20223;-53
2023/02/16 04:04:26;;;;;;;46.97;25.77;;;3.80;99.90;;;;;;5042930;28;20261;-56
2023/02/16 04:06:53;;;;;;;43.97;26.40;;;3.70;99.90;;;;;;5053039;28;20203;-51
2023/02/16 04:09:20;;;;;;;46.33;27.33;;;3.70;99.90;;;;;;5053619;28;20731;-57
2023/02/16 04:14:31;;;;;;;44.53;25.67;;;3.70;99.90;;;;;;5042856;28;20199;-49
2023/02/16 04:16:58;;;;;;;47.70;26.47;;;3.70;99.90;;;;;;5047077;28;20203;-49
2023/02/16 04:19:26;;;;;;;47.47;25.80;;;3.70;99.90;;;;;;5042724;28;20230;-57
2023/02/16 04:21:53;;;;;;;42.97;26.37;;;3.60;99.90;;;;;;5042985;28;20214;-47
2023/02/16 04:24:20;;;;;;;45.03;27.17;;;3.70;99.90;;;;;;5061637;28;20201;-57
2023/02/16 04:26:48;;;;;;;46.03;26.27;;;3.60;99.90;;;;;;5045889;28;20203;-48
2023/02/16 04:29:15;;;;;;;45.27;26.57;;;3.60;99.90;;;;;;5054289;28;20406;-57
2023/02/16 04:31:42;;;;;;;48.37;26.23;;;3.60;99.90;;;;;;5050216;28;20230;-51
2023/02/16 04:34:09;;;;;;;47.80;27.60;;;3.60;99.90;;;;;;5045574;28;20195;-57
2023/02/16 04:36:37;;;;;;;50.00;26.47;;;3.60;99.90;;;;;;5039679;28;20203;-52
2023/02/16 04:39:04;;;;;;;52.73;26.93;;;3.50;99.90;;;;;;5064661;28;20261;-50
2023/02/16 04:41:31;;;;;;;46.17;26.47;;;3.50;99.90;;;;;;5047001;28;20214;-48
2023/02/16 04:43:58;;;;;;;45.37;26.03;;;3.50;99.90;;;;;;5057333;28;20203;-48
2023/02/16 04:46:25;;;;;;;42.00;24.63;;;3.50;99.90;;;;;;5043981;28;20206;-58
2023/02/16 04:48:51;;;;;;;42.83;25.33;;;3.40;99.90;;;;;;5046441;28;20670;-48
2023/02/16 04:51:18;;;;;;;39.10;24.00;;;3.40;99.90;;;;;;5041894;28;20212;-56
2023/02/16 04:53:46;;;;;;;49.27;25.63;;;3.40;99.90;;;;;;5060784;28;20310;-53
2023/02/16 04:56:13;;;;;;;42.93;24.50;;;3.40;99.90;;;;;;5058005;28;20252;-57
2023/02/16 04:58:40;;;;;;;48.43;25.67;;;3.40;99.90;;;;;;5047864;28;20223;-49
2023/02/16 05:01:07;;;;;;;58.40;27.27;;;3.40;99.90;;;;;;5055022;28;20207;-57
2023/02/16 05:03:34;;;;;;;53.17;26.67;;;3.30;99.90;;;;;;5046438;28;20272;-48
2023/02/16 05:06:01;;;;;;;48.87;24.70;;;3.30;99.90;;;;;;5045689;28;20207;-51
2023/02/16 05:08:28;;;;;;;49.10;27.47;;;3.30;99.90;;;;;;5048857;28;20222;-48
2023/02/16 05:16:26;;;;;;;54.23;28.83;;;3.40;99.90;;;;;;5045057;28;20195;-56
2023/02/16 05:18:53;;;;;;;58.23;29.23;;;3.40;99.90;;;;;;5048412;28;20223;-47
2023/02/16 05:21:32;;;;;;;51.83;29.53;;;3.40;99.90;;;;;;5062107;28;20206;-57
2023/02/16 05:24:00;;;;;;;47.73;27.17;;;3.40;99.90;;;;;;5056919;28;20210;-48
2023/02/16 05:26:28;;;;;;;45.90;25.67;;;3.50;99.90;;;;;;5060986;28;20285;-48
2023/02/16 05:28:56;;;;;;;48.30;26.83;;;3.50;99.90;;;;;;5047075;28;20558;-48
2023/02/16 05:31:23;;;;;;;53.13;26.13;;;3.50;99.90;;;;;;5049139;28;20252;-56
2023/02/16 05:33:51;;;;;;;61.97;28.53;;;3.60;99.90;;;;;;5046637;28;20274;-50
2023/02/16 05:36:18;;;;;;;48.17;26.67;;;3.60;99.90;;;;;;5042794;28;20203;-57
2023/02/16 05:38:45;;;;;;;60.20;28.40;;;3.70;99.90;;;;;;5042364;28;20248;-50
2023/02/16 05:41:22;;;;;;;52.87;26.10;;;3.70;99.90;;;;;;5045872;28;20198;-49
2023/02/16 05:43:51;;;;;;;73.53;29.60;;;3.70;99.90;;;;;;5036526;28;20230;-58
2023/02/16 05:46:17;;;;;;;59.00;28.63;;;3.70;99.90;;;;;;5054613;28;20209;-48
2023/02/16 05:48:44;;;;;;;46.87;24.53;;;3.70;99.90;;;;;;5044141;28;20249;-52
2023/02/16 05:51:11;;;;;;;49.23;25.17;;;3.70;99.90;;;;;;5053369;28;20544;-49
2023/02/16 05:53:38;;;;;;;76.40;29.97;;;3.70;99.90;;;;;;5037206;28;20578;-57
2023/02/16 05:56:06;;;;;;;61.07;27.67;;;3.70;99.90;;;;;;5059786;28;20554;-47
2023/02/16 05:58:33;;;;;;;53.27;27.10;;;3.80;99.90;;;;;;5044988;28;20223;-58
2023/02/16 06:01:01;;;;;;;55.00;28.27;;;3.80;99.90;;;;;;5043885;28;20269;-49
2023/02/16 06:03:29;;;;;;;46.67;24.73;;;3.80;99.90;;;;;;5048365;28;20187;-51
2023/02/16 06:05:57;;;;;;;58.00;28.37;;;3.80;99.90;;;;;;5050491;28;20226;-50
2023/02/16 06:08:25;;;;;;;62.97;28.20;;;3.80;99.90;;;;;;5044813;28;20223;-51
2023/02/16 06:10:53;;;;;;;59.27;28.70;;;3.80;99.90;;;;;;5053300;28;20590;-47
2023/02/16 06:13:20;;;;;;;63.03;28.13;;;3.80;99.90;;;;;;5039856;28;20238;-58
2023/02/16 06:15:48;;;;;;;60.90;28.60;;;3.80;99.90;;;;;;5037839;28;20211;-48
2023/02/16 06:18:17;;;;;;;44.33;26.07;;;3.90;99.90;;;;;;5051460;28;20223;-59
2023/02/16 06:20:43;;;;;;;49.87;27.10;;;3.90;99.90;;;;;;5050423;28;20266;-52
2023/02/16 06:23:12;;;;;;;54.40;27.73;;;3.90;99.90;;;;;;5053426;28;20192;-59
2023/02/16 06:25:41;;;;;;;58.70;29.03;;;4.00;99.90;;;;;;5042058;28;20202;-50
2023/02/16 06:28:09;;;;;;;58.57;27.37;;;4.00;99.90;;;;;;5042038;28;20215;-57
2023/02/16 06:30:35;;;;;;;58.67;26.63;;;4.00;99.90;;;;;;5035005;28;21094;-49
2023/02/16 06:33:03;;;;;;;60.03;28.47;;;4.00;99.90;;;;;;5047580;28;20575;-57
2023/02/16 06:35:32;;;;;;;53.73;28.53;;;4.00;99.90;;;;;;5046102;28;20280;-56
2023/02/16 06:37:59;;;;;;;51.90;26.67;;;4.10;99.90;;;;;;5044649;28;20215;-49
2023/02/16 06:40:25;;;;;;;66.33;28.73;;;4.00;99.90;;;;;;5050772;28;20205;-55
2023/02/16 06:42:52;;;;;;;65.20;27.77;;;4.00;99.90;;;;;;5046344;28;20209;-50
2023/02/16 06:45:19;;;;;;;56.37;28.17;;;4.10;99.90;;;;;;5042931;28;20210;-49
2023/02/16 06:47:46;;;;;;;60.70;28.77;;;4.10;99.90;;;;;;5041165;28;20218;-50
2023/02/16 06:50:13;;;;;;;67.17;29.37;;;4.10;99.90;;;;;;5055457;28;20195;-52
2023/02/16 06:52:41;;;;;;;51.33;26.67;;;4.10;99.90;;;;;;5043648;28;20610;-57
2023/02/16 06:55:08;;;;;;;51.50;26.70;;;4.10;99.90;;;;;;5047615;28;20593;-53
2023/02/16 06:57:35;;;;;;;57.43;28.40;;;4.10;99.90;;;;;;5042623;28;20218;-56
2023/02/16 07:00:03;;;;;;;49.67;27.13;;;4.10;99.90;;;;;;5030946;28;20210;-50
2023/02/16 07:02:30;;;;;;;46.10;25.40;;;4.10;99.90;;;;;;5045524;28;20755;-57
2023/02/16 07:04:57;;;;;;;46.97;25.53;;;4.10;99.90;;;;;;5047822;28;20810;-52
2023/02/16 07:07:24;;;;;;;45.80;26.70;;;4.10;99.90;;;;;;5053314;28;20191;-52
2023/02/16 07:09:52;;;;;;;59.00;30.57;;;4.10;99.90;;;;;;5040199;28;21442;-53
2023/02/16 07:12:18;;;;;;;50.10;26.97;;;4.20;99.90;;;;;;5037193;28;20281;-54
2023/02/16 07:14:45;;;;;;;50.73;26.97;;;4.20;99.90;;;;;;5041243;28;20198;-53
2023/02/16 07:17:12;;;;;;;45.00;25.90;;;4.20;99.90;;;;;;5045445;28;20203;-50
2023/02/16 07:19:39;;;;;;;41.53;24.77;;;4.20;99.90;;;;;;5044155;28;20217;-59
2023/02/16 07:22:05;;;;;;;45.13;26.77;;;4.20;99.90;;;;;;5047216;28;20203;-51
2023/02/16 07:24:32;;;;;;;42.50;26.30;;;4.30;99.90;;;;;;5060457;28;20204;-57
2023/02/16 07:27:00;;;;;;;47.63;27.37;;;4.30;99.90;;;;;;5037081;28;20211;-54
2023/02/16 07:29:28;;;;;;;54.30;27.90;;;4.30;99.90;;;;;;5062170;28;20632;-57
2023/02/16 07:31:55;;;;;;;49.63;27.03;;;4.40;99.90;;;;;;5037261;28;20308;-53
2023/02/16 07:34:22;;;;;;;47.63;28.73;;;4.40;99.90;;;;;;5054127;28;20208;-48
2023/02/16 07:36:49;;;;;;;47.73;28.03;;;4.40;99.90;;;;;;5046590;28;20191;-48
2023/02/16 07:39:16;;;;;;;53.83;28.90;;;4.50;99.90;;;;;;5047981;28;20223;-48
2023/02/16 07:41:43;;;;;;;46.40;26.90;;;4.50;99.90;;;;;;5043787;28;20286;-56
2023/02/16 07:44:11;;;;;;;47.17;26.50;;;4.50;99.90;;;;;;5048806;28;20221;-49
2023/02/16 07:46:38;;;;;;;44.90;25.13;;;4.60;99.90;;;;;;5035863;28;20199;-59
2023/02/16 07:49:05;;;;;;;42.27;25.23;;;4.60;99.90;;;;;;5054895;28;20226;-51
2023/02/16 07:51:32;;;;;;;46.60;26.87;;;4.70;99.90;;;;;;5046054;28;20210;-57
2023/02/16 07:54:00;;;;;;;53.63;29.90;;;4.70;99.90;;;;;;5045111;28;20352;-49
2023/02/16 07:56:30;;;;;;;46.87;27.80;;;4.70;99.90;;;;;;5046499;28;20279;-57
2023/02/16 07:58:58;;;;;;;53.20;28.13;;;4.80;99.90;;;;;;5040480;28;20235;-52
2023/02/16 08:01:28;;;;;;;50.93;29.63;;;4.90;99.90;;;;;;5045765;28;20231;-58
2023/02/16 08:03:55;;;;;;;48.23;28.10;;;4.90;99.90;;;;;;5041225;28;20207;-48
2023/02/16 08:06:23;;;;;;;55.37;28.67;;;5.00;99.90;;;;;;5058339;28;20631;-49
2023/02/16 08:08:50;;;;;;;50.47;27.90;;;5.00;99.90;;;;;;5042945;28;20204;-49
2023/02/16 08:11:19;;;;;;;47.33;27.50;;;5.10;99.90;;;;;;5047249;28;20207;-53
2023/02/16 08:13:47;;;;;;;48.30;28.37;;;5.10;99.90;;;;;;5037823;28;20719;-48
2023/02/16 08:16:16;;;;;;;43.70;26.13;;;5.20;99.90;;;;;;5046214;28;20249;-57
2023/02/16 08:18:44;;;;;;;47.57;27.00;;;5.20;99.90;;;;;;5039292;28;20626;-53
2023/02/16 08:21:13;;;;;;;48.73;27.33;;;5.20;99.90;;;;;;5044792;28;20195;-58
2023/02/16 08:23:42;;;;;;;46.13;27.80;;;5.30;99.90;;;;;;5051648;28;20543;-50
2023/02/16 08:26:10;;;;;;;44.13;27.27;;;5.30;99.90;;;;;;5044148;28;20199;-57
2023/02/16 08:28:37;;;;;;;51.00;29.10;;;5.30;99.90;;;;;;5045622;28;20565;-48
2023/02/16 08:31:05;;;;;;;57.50;29.90;;;5.40;99.90;;;;;;5045187;28;20201;-56
2023/02/16 08:33:34;;;;;;;54.20;28.23;;;5.50;99.90;;;;;;5033576;28;20254;-49
2023/02/16 08:36:02;;;;;;;52.33;30.33;;;5.50;99.90;;;;;;5050762;28;20207;-56
2023/02/16 08:38:33;;;;;;;55.90;30.27;;;5.60;99.90;;;;;;5057938;28;20297;-52
2023/02/16 08:40:59;;;;;;;46.83;28.53;;;5.70;99.90;;;;;;5056958;28;20194;-57
2023/02/16 08:43:26;;;;;;;47.40;27.90;;;5.70;99.90;;;;;;5058559;28;20711;-48
2023/02/16 08:45:53;;;;;;;51.73;28.93;;;5.80;99.90;;;;;;5048658;28;20273;-48
2023/02/16 08:48:20;;;;;;;44.97;26.97;;;5.90;99.90;;;;;;5039740;28;20214;-50
2023/02/16 08:50:52;;;;;;;47.80;27.67;;;5.90;99.90;;;;;;5049522;28;20234;-52
2023/02/16 08:53:20;;;;;;;45.83;27.93;;;6.00;99.90;;;;;;5046585;28;20835;-48
2023/02/16 08:55:51;;;;;;;49.67;28.80;;;6.00;99.90;;;;;;5047492;28;20230;-47
2023/02/16 08:58:18;;;;;;;41.63;27.27;;;6.10;99.90;;;;;;5041736;28;20236;-50
2023/02/16 09:00:45;;;;;;;52.17;30.07;;;6.10;99.90;;;;;;5044810;28;20218;-48
2023/02/16 09:03:13;;;;;;;45.73;28.70;;;6.20;99.90;;;;;;5024502;28;20210;-53
2023/02/16 09:05:40;;;;;;;49.07;29.03;;;6.30;99.90;;;;;;5051497;28;20199;-58
2023/02/16 09:08:08;;;;;;;49.13;28.27;;;6.40;99.90;;;;;;5043118;28;20238;-52
2023/02/16 09:10:36;;;;;;;49.57;28.40;;;6.40;99.90;;;;;;5052411;28;20199;-52
2023/02/16 09:13:02;;;;;;;43.60;27.00;;;6.40;99.90;;;;;;5057905;28;20215;-52
2023/02/16 09:15:29;;;;;;;43.87;27.80;;;6.40;99.90;;;;;;5048797;28;20218;-50
2023/02/16 09:17:56;;;;;;;41.50;25.37;;;6.40;99.90;;;;;;5032961;28;20241;-57
2023/02/16 09:20:23;;;;;;;41.47;25.57;;;6.50;99.90;;;;;;5032590;28;20200;-52
2023/02/16 09:22:51;;;;;;;42.37;26.23;;;6.50;99.90;;;;;;5064859;28;20196;-51
2023/02/16 09:25:18;;;;;;;41.47;25.00;;;6.50;99.90;;;;;;5043691;28;20209;-56
2023/02/16 09:27:46;;;;;;;43.23;26.53;;;6.60;99.90;;;;;;5052979;28;20219;-51
2023/02/16 09:30:14;;;;;;;41.87;24.97;;;6.60;99.90;;;;;;5049144;28;20667;-57
2023/02/16 09:32:41;;;;;;;39.57;25.83;;;6.60;99.90;;;;;;5054959;28;20190;-49
2023/02/16 09:35:08;;;;;;;46.63;26.27;;;6.60;99.90;;;;;;5041489;28;20622;-56
2023/02/16 09:37:34;;;;;;;39.63;26.83;;;6.70;99.90;;;;;;5044739;28;20891;-48
2023/02/16 09:40:01;;;;;;;39.93;26.77;;;6.70;99.90;;;;;;5053546;28;20620;-51
2023/02/16 09:42:35;;;;;;;37.80;25.53;;;6.80;99.90;;;;;;5055335;28;20268;-51
2023/02/16 09:45:08;;;;;;;46.23;26.30;;;6.80;99.90;;;;;;5055148;28;20235;-51
2023/02/16 09:47:38;;;;;;;48.83;28.63;;;6.80;99.90;;;;;;5054450;28;20292;-49
2023/02/16 09:50:13;;;;;;;40.43;26.67;;;6.80;99.90;;;;;;5042163;28;20198;-54
2023/02/16 09:52:50;;;;;;;48.07;28.83;;;6.90;99.90;;;;;;5045168;28;20729;-52
2023/02/16 09:55:19;;;;;;;44.43;26.33;;;6.90;99.90;;;;;;5037991;28;20286;-60
2023/02/16 09:57:55;;;;;;;42.73;26.73;;;7.00;99.90;;;;;;5055617;28;20231;-51
2023/02/16 10:00:32;;;;;;;45.53;26.73;;;7.00;99.90;;;;;;5044768;28;20221;-55
2023/02/16 10:03:13;;;;;;;46.10;27.00;;;7.10;99.90;;;;;;5046930;28;20198;-50
2023/02/16 10:05:44;;;;;;;40.53;26.37;;;7.20;99.90;;;;;;5036119;28;20219;-47
2023/02/16 10:08:15;;;;;;;41.50;26.53;;;7.30;99.90;;;;;;5053278;28;20300;-56
2023/02/16 10:10:47;;;;;;;45.23;27.30;;;7.30;99.90;;;;;;5042906;28;20203;-52
2023/02/16 10:13:22;;;;;;;50.63;27.97;;;7.30;99.90;;;;;;5048022;28;20264;-57
2023/02/16 10:15:53;;;;;;;45.20;26.13;;;7.30;99.90;;;;;;5046237;28;20230;-49
2023/02/16 10:18:25;;;;;;;40.87;27.20;;;7.30;99.90;;;;;;5058192;28;20709;-58
2023/02/16 10:20:56;;;;;;;43.23;26.47;;;7.30;99.90;;;;;;5037087;28;20229;-51
2023/02/16 10:23:33;;;;;;;40.30;24.43;;;7.30;99.90;;;;;;5039729;28;20253;-57
2023/02/16 10:26:06;;;;;;;45.73;27.60;;;7.20;99.90;;;;;;5050006;28;20237;-51
2023/02/16 10:28:39;;;;;;;42.57;28.87;;;7.20;99.90;;;;;;5042286;28;20232;-52
2023/02/16 10:31:15;;;;;;;47.33;29.57;;;7.20;99.90;;;;;;5060519;28;20202;-58
2023/02/16 10:33:43;;;;;;;41.37;28.17;;;7.20;99.90;;;;;;5045088;28;20871;-54
2023/02/16 10:36:22;;;;;;;44.63;29.00;;;7.20;99.90;;;;;;5035360;28;20209;-58
2023/02/16 10:38:54;;;;;;;46.77;28.03;;;7.30;99.90;;;;;;5049628;28;20226;-48
2023/02/16 10:41:30;;;;;;;42.67;26.90;;;7.20;99.90;;;;;;5051843;28;20211;-58
2023/02/16 10:44:02;;;;;;;43.67;28.00;;;7.30;99.90;;;;;;5047237;28;20195;-51
2023/02/16 10:46:34;;;;;;;46.43;28.47;;;7.30;99.90;;;;;;5052532;28;20183;-51
2023/02/16 10:49:01;;;;;;;41.87;27.00;;;7.30;99.90;;;;;;5052646;28;20297;-48
2023/02/16 10:51:33;;;;;;;43.80;27.53;;;7.30;99.90;;;;;;5032669;28;24153;-48
2023/02/16 10:54:04;;;;;;;50.17;27.83;;;7.40;99.90;;;;;;5053932;28;20227;-47
2023/02/16 10:56:52;;;;;;;42.13;27.07;;;7.40;99.90;;;;;;5040207;28;20195;-48
2023/02/16 10:59:21;;;;;;;42.80;27.17;;;7.50;99.90;;;;;;5038083;28;20223;-57
2023/02/16 11:01:52;;;;;;;42.73;27.53;;;7.50;99.90;;;;;;5061088;28;20213;-50
2023/02/16 11:04:47;;;;;;;42.97;28.13;;;7.50;99.90;;;;;;5050433;28;20197;-56
2023/02/16 11:07:16;;;;;;;47.50;27.77;;;7.60;99.90;;;;;;5011235;28;20712;-58
2023/02/16 11:09:44;;;;;;;44.30;27.57;;;7.70;99.90;;;;;;5045705;28;20198;-48
2023/02/16 11:12:17;;;;;;;48.50;28.03;;;7.70;99.90;;;;;;5042034;28;20240;-55
2023/02/16 11:14:49;;;;;;;41.30;26.13;;;7.80;99.90;;;;;;5049245;28;20372;-51
2023/02/16 11:17:19;;;;;;;44.57;28.73;;;7.80;99.90;;;;;;5050624;28;20829;-56
2023/02/16 11:19:53;;;;;;;45.13;27.70;;;7.90;99.90;;;;;;5049659;28;20289;-49
2023/02/16 11:22:40;;;;;;;46.80;29.17;;;7.90;99.90;;;;;;5033729;28;20257;-57
2023/02/16 11:25:25;;;;;;;41.90;26.07;;;8.00;99.90;;;;;;5050927;28;20191;-56
2023/02/16 11:27:54;;;;;;;43.93;27.77;;;8.00;99.90;;;;;;5044566;28;20226;-49
2023/02/16 11:30:30;;;;;;;54.30;29.50;;;8.00;99.90;;;;;;5039801;28;20547;-57
2023/02/16 11:33:01;;;;;;;49.03;30.07;;;8.00;99.90;;;;;;5053817;28;20686;-50
2023/02/16 11:35:30;;;;;;;42.63;27.87;;;8.10;99.90;;;;;;5050351;28;20218;-52
2023/02/16 11:37:56;;;;;;;48.03;29.30;;;8.20;99.90;;;;;;5057255;28;20214;-51
2023/02/16 11:40:26;;;;;;;42.77;25.97;;;8.20;99.90;;;;;;5037064;28;20203;-50
2023/02/16 11:42:54;;;;;;;46.60;27.80;;;8.20;99.90;;;;;;5050131;28;20676;-53
2023/02/16 11:45:26;;;;;;;47.27;26.60;;;8.20;99.90;;;;;;5036529;28;20276;-56
2023/02/16 11:47:55;;;;;;;41.83;27.20;;;8.20;99.90;;;;;;5051494;28;20242;-54
2023/02/16 11:50:27;;;;;;;44.20;26.63;;;8.10;99.90;;;;;;5041532;28;20203;-56
2023/02/16 11:52:56;;;;;;;44.80;27.80;;;8.10;99.90;;;;;;5037847;28;20207;-50
2023/02/16 11:55:26;;;;;;;45.33;27.80;;;8.20;99.90;;;;;;5031631;28;20240;-56
2023/02/16 11:57:55;;;;;;;49.53;29.70;;;8.20;99.90;;;;;;5034550;28;20581;-52
2023/02/16 12:00:25;;;;;;;46.00;28.77;;;8.20;99.90;;;;;;5038085;28;20207;-55
2023/02/16 12:03:20;;;;;;;43.17;27.60;;;8.20;99.90;;;;;;5036570;28;20895;-49
2023/02/16 12:06:12;;;;;;;43.77;28.37;;;8.30;99.90;;;;;;5039670;28;20199;-54
2023/02/16 12:08:50;;;;;;;47.83;28.23;;;8.30;99.90;;;;;;5032726;28;20708;-55
2023/02/16 12:11:26;;;;;;;44.00;27.70;;;8.30;99.90;;;;;;5052725;28;20223;-49
2023/02/16 12:14:07;;;;;;;46.60;28.20;;;8.30;99.90;;;;;;5034272;28;20221;-52
2023/02/16 12:16:41;;;;;;;46.03;28.73;;;8.30;99.90;;;;;;5047581;28;20236;-58
2023/02/16 12:19:18;;;;;;;44.93;28.83;;;8.30;99.90;;;;;;5043480;28;20215;-54
2023/02/16 12:21:49;;;;;;;48.83;30.53;;;8.30;99.90;;;;;;5051966;28;20213;-57
2023/02/16 12:24:31;;;;;;;45.80;29.13;;;8.30;99.90;;;;;;5043153;28;20723;-52
2023/02/16 12:27:01;;;;;;;42.30;29.73;;;8.30;99.90;;;;;;5044577;28;20210;-51
2023/02/16 12:29:37;;;;;;;45.03;29.07;;;8.30;99.90;;;;;;5040562;28;20230;-53
2023/02/16 12:32:21;;;;;;;49.27;29.73;;;8.30;99.90;;;;;;5045931;28;20245;-53
2023/02/16 12:34:58;;;;;;;54.03;30.57;;;8.30;99.90;;;;;;5045932;28;20226;-53
2023/02/16 12:37:36;;;;;;;44.03;27.30;;;8.30;99.90;;;;;;5046811;28;20583;-53
2023/02/16 12:40:13;;;;;;;52.00;30.93;;;8.30;99.90;;;;;;5040414;28;20213;-53
2023/02/16 12:42:54;;;;;;;56.03;31.43;;;8.20;99.90;;;;;;5032512;28;20277;-56
2023/02/16 12:45:25;;;;;;;50.90;31.13;;;8.20;99.90;;;;;;5050140;28;20277;-51
2023/02/16 12:47:56;;;;;;;56.67;31.47;;;8.20;99.90;;;;;;5042932;28;21179;-51
2023/02/16 12:50:26;;;;;;;54.07;30.87;;;8.20;99.90;;;;;;5056832;28;20576;-53
2023/02/16 12:52:57;;;;;;;60.93;34.30;;;8.20;99.90;;;;;;5045390;28;20729;-51
2023/02/16 12:55:28;;;;;;;59.97;33.50;;;8.20;99.90;;;;;;5045350;28;20237;-54
2023/02/16 12:58:01;;;;;;;66.40;35.30;;;8.20;99.90;;;;;;5025830;28;20227;-56
2023/02/16 13:00:42;;;;;;;60.60;32.40;;;8.20;99.90;;;;;;5041202;28;20222;-53
2023/02/16 13:03:22;;;;;;;69.47;35.37;;;8.20;99.90;;;;;;5041647;28;20206;-56
2023/02/16 13:05:57;;;;;;;69.57;35.00;;;8.20;99.90;;;;;;5057145;28;20278;-51
2023/02/16 13:08:37;;;;;;;67.57;36.13;;;8.20;99.90;;;;;;5049091;28;20210;-54
2023/02/16 13:11:10;;;;;;;65.97;34.57;;;8.20;99.90;;;;;;5047116;28;20282;-56
2023/02/16 13:13:38;;;;;;;69.87;36.37;;;8.10;99.90;;;;;;5036703;28;20211;-52
2023/02/16 13:16:11;;;;;;;75.27;37.03;;;8.10;99.90;;;;;;5042052;28;20320;-56
2023/02/16 13:18:43;;;;;;;69.93;38.30;;;8.10;99.90;;;;;;5045716;28;20223;-54
2023/02/16 13:21:14;;;;;;;77.63;38.47;;;8.20;99.90;;;;;;5051824;28;20210;-57
2023/02/16 13:23:57;;;;;;;69.73;36.63;;;8.20;99.90;;;;;;5056693;28;20203;-52
2023/02/16 13:26:48;;;;;;;74.97;39.07;;;8.30;99.90;;;;;;5043475;28;20217;-51
2023/02/16 13:29:40;;;;;;;71.90;37.90;;;8.20;99.90;;;;;;5033008;28;20246;-53
2023/02/16 13:32:41;;;;;;;67.33;37.23;;;8.20;99.90;;;;;;5032117;28;20203;-58
2023/02/16 13:35:31;;;;;;;69.37;39.03;;;8.20;99.90;;;;;;5038955;28;20235;-51
2023/02/16 13:38:17;;;;;;;76.80;39.47;;;8.20;99.90;;;;;;5048625;28;20849;-55
2023/02/16 13:41:08;;;;;;;76.80;39.10;;;8.20;99.90;;;;;;5057930;28;20203;-53
2023/02/16 13:43:36;;;;;;;64.77;37.77;;;8.30;99.90;;;;;;5042612;28;20213;-51
2023/02/16 13:46:06;;;;;;;56.97;35.17;;;8.20;99.90;;;;;;5051747;28;20202;-56